createdAt,value
2018-11-10T00:01:30.994Z,8.50
2018-11-10T00:03:58.171Z,8.40
2018-11-10T00:06:25.550Z,8.40
2018-11-10T00:08:52.682Z,8.50
2018-11-10T00:11:19.912Z,8.40
2018-11-10T00:13:47.068Z,8.40
2018-11-10T00:16:14.250Z,8.30
2018-11-10T00:18:41.424Z,8.40
2018-11-10T00:21:08.575Z,8.50
2018-11-10T00:23:35.737Z,8.50
2018-11-10T00:26:02.908Z,8.30
2018-11-10T00:28:30.041Z,8.20
2018-11-10T00:30:57.746Z,8.10
2018-11-10T00:33:24.897Z,8.00
2018-11-10T00:35:52.039Z,8.00
2018-11-10T00:38:19.203Z,8.10
2018-11-10T00:40:46.350Z,8.30
2018-11-10T00:43:13.493Z,8.30
2018-11-10T00:45:40.656Z,8.20
2018-11-10T00:48:07.823Z,8.10
2018-11-10T00:50:35.017Z,8.20
2018-11-10T00:53:02.180Z,8.20
2018-11-10T00:55:29.397Z,8.00
2018-11-10T00:57:56.589Z,8.10
2018-11-10T01:00:23.763Z,8.00
2018-11-10T01:02:50.913Z,8.00
2018-11-10T01:05:18.091Z,8.00
2018-11-10T01:07:45.260Z,8.10
2018-11-10T01:10:13.075Z,8.30
2018-11-10T01:12:40.430Z,8.30
2018-11-10T01:15:09.246Z,8.40
2018-11-10T01:17:36.480Z,8.20
2018-11-10T01:20:03.824Z,8.20
2018-11-10T01:22:30.975Z,8.20
2018-11-10T01:24:58.118Z,8.10
2018-11-10T01:27:25.292Z,8.10
2018-11-10T01:29:52.427Z,8.10
2018-11-10T01:32:19.690Z,8.10
2018-11-10T01:34:46.855Z,8.30
2018-11-10T01:37:14.003Z,8.50
2018-11-10T01:39:41.144Z,8.50
2018-11-10T01:42:08.304Z,8.60
2018-11-10T01:44:35.473Z,8.70
2018-11-10T01:47:02.602Z,8.70
2018-11-10T01:49:29.757Z,8.80
2018-11-10T01:51:56.924Z,8.80
2018-11-10T01:54:24.068Z,8.90
2018-11-10T01:56:51.203Z,9.00
2018-11-10T01:59:18.349Z,9.00
2018-11-10T02:01:45.519Z,9.00
2018-11-10T02:04:12.743Z,9.00
2018-11-10T02:06:39.912Z,9.10
2018-11-10T02:09:07.968Z,9.10
2018-11-10T02:11:35.129Z,9.00
2018-11-10T02:14:02.463Z,9.00
2018-11-10T02:16:29.619Z,9.10
2018-11-10T02:18:56.770Z,9.10
2018-11-10T02:21:23.951Z,9.20
2018-11-10T02:23:51.132Z,9.20
2018-11-10T02:26:18.343Z,9.30
2018-11-10T02:28:45.543Z,9.20
2018-11-10T02:31:19.381Z,9.20
2018-11-10T02:33:46.583Z,9.20
2018-11-10T02:36:13.997Z,9.20
2018-11-10T02:38:41.163Z,9.20
2018-11-10T02:41:08.291Z,9.20
2018-11-10T02:43:35.460Z,9.20
2018-11-10T02:46:02.613Z,9.20
2018-11-10T02:48:29.759Z,9.30
2018-11-10T02:50:57.003Z,9.30
2018-11-10T02:53:24.149Z,9.20
2018-11-10T02:55:51.313Z,9.30
2018-11-10T02:58:18.436Z,9.30
2018-11-10T03:00:45.564Z,9.40
2018-11-10T03:03:12.752Z,9.50
2018-11-10T03:05:39.923Z,9.50
2018-11-10T03:08:07.068Z,9.50
2018-11-10T03:10:34.233Z,9.40
2018-11-10T03:13:01.355Z,9.40
2018-11-10T03:15:28.495Z,9.40
2018-11-10T03:17:55.645Z,9.40
2018-11-10T03:20:22.791Z,9.50
2018-11-10T03:22:49.960Z,9.40
2018-11-10T03:25:17.110Z,9.50
2018-11-10T03:27:44.281Z,9.40
2018-11-10T03:30:11.479Z,9.50
2018-11-10T03:32:38.636Z,9.50
2018-11-10T03:35:06.543Z,9.50
2018-11-10T03:37:33.737Z,9.50
2018-11-10T03:40:01.176Z,9.40
2018-11-10T03:42:28.324Z,9.30
2018-11-10T03:44:55.451Z,9.40
2018-11-10T03:47:22.572Z,9.50
2018-11-10T03:49:49.729Z,9.60
2018-11-10T03:52:16.876Z,9.50
2018-11-10T03:54:43.994Z,9.50
2018-11-10T03:57:11.128Z,9.40
2018-11-10T03:59:38.575Z,9.40
2018-11-10T04:02:05.824Z,9.50
2018-11-10T04:04:32.972Z,9.70
2018-11-10T04:07:00.172Z,9.70
2018-11-10T04:09:27.316Z,9.70
2018-11-10T04:11:54.456Z,9.80
2018-11-10T04:14:21.636Z,9.60
2018-11-10T04:16:48.792Z,9.50
2018-11-10T04:19:15.975Z,9.40
2018-11-10T04:21:43.115Z,9.40
2018-11-10T04:24:10.290Z,9.30
2018-11-10T04:26:37.415Z,9.30
2018-11-10T04:29:04.579Z,9.40
2018-11-10T04:31:31.716Z,9.40
2018-11-10T04:33:59.219Z,9.30
2018-11-10T04:36:26.437Z,9.40
2018-11-10T04:38:53.591Z,9.50
2018-11-10T04:41:20.759Z,9.50
2018-11-10T04:43:47.879Z,9.40
2018-11-10T04:46:15.141Z,9.40
2018-11-10T04:48:42.321Z,9.40
2018-11-10T04:51:09.470Z,9.30
2018-11-10T04:53:36.659Z,9.20
2018-11-10T04:56:04.216Z,9.20
2018-11-10T04:58:31.343Z,9.20
2018-11-10T05:00:58.478Z,9.00
2018-11-10T05:03:25.612Z,9.10
2018-11-10T05:05:52.772Z,9.10
2018-11-10T05:08:19.906Z,9.00
2018-11-10T05:10:47.064Z,9.10
2018-11-10T05:13:14.255Z,9.10
2018-11-10T05:15:41.430Z,9.20
2018-11-10T05:18:08.592Z,9.20
2018-11-10T05:20:35.740Z,9.20
2018-11-10T05:23:02.941Z,9.20
2018-11-10T05:25:30.099Z,9.30
2018-11-10T05:27:57.263Z,9.20
2018-11-10T05:30:24.425Z,9.20
2018-11-10T05:32:51.589Z,9.10
2018-11-10T05:35:18.895Z,9.30
2018-11-10T05:37:46.035Z,9.30
2018-11-10T05:40:13.195Z,9.10
2018-11-10T05:42:40.624Z,9.20
2018-11-10T05:45:07.939Z,8.90
2018-11-10T05:47:35.073Z,8.70
2018-11-10T05:50:02.268Z,8.70
2018-11-10T05:52:29.398Z,8.60
2018-11-10T05:54:56.791Z,8.70
2018-11-10T05:57:23.915Z,8.80
2018-11-10T05:59:51.096Z,8.70
2018-11-10T06:02:18.236Z,8.80
2018-11-10T06:04:45.367Z,8.80
2018-11-10T06:07:12.528Z,8.90
2018-11-10T06:09:39.689Z,8.80
2018-11-10T06:12:06.814Z,8.80
2018-11-10T06:14:33.968Z,8.80
2018-11-10T06:17:01.103Z,8.90
2018-11-10T06:19:28.245Z,8.80
2018-11-10T06:21:55.372Z,8.90
2018-11-10T06:24:22.532Z,8.80
2018-11-10T06:26:49.670Z,8.70
2018-11-10T06:29:16.821Z,8.80
2018-11-10T06:31:43.983Z,8.80
2018-11-10T06:34:11.176Z,8.90
2018-11-10T06:36:38.345Z,8.90
2018-11-10T06:39:07.543Z,9.00
2018-11-10T06:41:35.072Z,9.00
2018-11-10T06:44:02.208Z,9.00
2018-11-10T06:46:29.363Z,9.10
2018-11-10T06:48:56.501Z,9.10
2018-11-10T06:51:23.628Z,9.20
2018-11-10T06:53:50.764Z,9.20
2018-11-10T06:56:18.025Z,9.20
2018-11-10T06:58:45.147Z,9.20
2018-11-10T07:01:12.287Z,9.30
2018-11-10T07:03:39.432Z,9.30
2018-11-10T07:06:06.632Z,9.30
2018-11-10T07:08:33.784Z,9.20
2018-11-10T07:11:00.979Z,9.20
2018-11-10T07:13:28.116Z,9.30
2018-11-10T07:15:55.321Z,9.30
2018-11-10T07:18:22.406Z,9.30
2018-11-10T07:20:49.542Z,9.30
2018-11-10T07:23:16.707Z,9.40
2018-11-10T07:25:43.831Z,9.50
2018-11-10T07:28:11.014Z,9.70
2018-11-10T07:30:39.069Z,9.70
2018-11-10T07:33:06.219Z,9.60
2018-11-10T07:35:33.364Z,9.60
2018-11-10T07:38:00.533Z,9.60
2018-11-10T07:40:27.670Z,9.70
2018-11-10T07:42:54.832Z,9.80
2018-11-10T07:45:21.967Z,9.70
2018-11-10T07:47:49.175Z,9.80
2018-11-10T07:50:16.308Z,9.80
2018-11-10T07:52:43.455Z,9.70
2018-11-10T07:55:12.092Z,9.60
2018-11-10T07:57:39.299Z,9.70
2018-11-10T08:00:08.962Z,9.80
2018-11-10T08:02:36.115Z,9.80
2018-11-10T08:05:03.303Z,9.80
2018-11-10T08:07:30.446Z,9.90
2018-11-10T08:09:57.583Z,9.80
2018-11-10T08:12:24.715Z,9.80
2018-11-10T08:14:51.841Z,9.90
2018-11-10T08:17:19.035Z,9.90
2018-11-10T08:19:46.168Z,10.00
2018-11-10T08:22:13.294Z,10.00
2018-11-10T08:24:40.435Z,10.10
2018-11-10T08:27:07.586Z,10.20
2018-11-10T08:29:34.746Z,10.20
2018-11-10T08:32:01.926Z,10.30
2018-11-10T08:34:29.059Z,10.30
2018-11-10T08:36:56.201Z,10.30
2018-11-10T08:39:23.456Z,10.30
2018-11-10T08:41:50.503Z,10.30
2018-11-10T08:44:17.662Z,10.30
2018-11-10T08:46:44.823Z,10.50
2018-11-10T08:49:12.014Z,10.60
2018-11-10T08:51:39.313Z,10.80
2018-11-10T08:54:06.463Z,10.90
2018-11-10T08:56:33.628Z,10.80
2018-11-10T08:59:00.793Z,10.80
2018-11-10T09:01:27.950Z,10.70
2018-11-10T09:03:55.095Z,10.70
2018-11-10T09:06:22.248Z,10.80
2018-11-10T09:08:49.379Z,10.80
2018-11-10T09:11:16.507Z,11.10
2018-11-10T09:13:43.646Z,11.40
2018-11-10T09:16:10.803Z,11.40
2018-11-10T09:18:37.985Z,11.70
2018-11-10T09:21:05.503Z,11.60
2018-11-10T09:23:32.588Z,11.40
2018-11-10T09:25:59.744Z,11.00
2018-11-10T09:28:26.923Z,11.40
2018-11-10T09:30:54.078Z,11.40
2018-11-10T09:33:21.226Z,11.30
2018-11-10T09:35:48.395Z,11.30
2018-11-10T09:38:15.528Z,11.40
2018-11-10T09:40:42.660Z,11.40
2018-11-10T09:43:09.805Z,11.50
2018-11-10T09:45:36.984Z,11.60
2018-11-10T09:48:04.384Z,11.60
2018-11-10T09:50:31.601Z,11.90
2018-11-10T09:52:58.746Z,12.00
2018-11-10T09:55:25.906Z,12.10
2018-11-10T09:57:53.158Z,12.20
2018-11-10T10:00:21.266Z,12.50
2018-11-10T10:02:49.028Z,12.40
2018-11-10T10:05:15.778Z,12.60
2018-11-10T10:07:43.464Z,12.50
2018-11-10T10:10:12.244Z,12.40
2018-11-10T10:12:39.495Z,12.20
2018-11-10T10:15:08.193Z,12.10
2018-11-10T10:17:35.414Z,12.20
2018-11-10T10:20:02.651Z,12.40
2018-11-10T10:22:30.076Z,12.10
2018-11-10T10:24:57.393Z,12.20
2018-11-10T10:27:24.559Z,12.40
2018-11-10T10:29:51.701Z,12.60
2018-11-10T10:32:18.830Z,12.50
2018-11-10T10:34:46.221Z,12.70
2018-11-10T10:37:13.311Z,12.40
2018-11-10T10:39:40.453Z,12.50
2018-11-10T10:42:07.621Z,12.70
2018-11-10T10:44:34.754Z,13.10
2018-11-10T10:47:01.889Z,12.90
2018-11-10T10:49:29.038Z,13.10
2018-11-10T10:51:56.196Z,13.20
2018-11-10T10:54:23.427Z,13.30
2018-11-10T10:56:50.631Z,13.30
2018-11-10T10:59:19.186Z,13.00
2018-11-10T11:01:52.147Z,12.70
2018-11-10T11:04:25.138Z,12.70
2018-11-10T11:06:52.371Z,12.80
2018-11-10T11:09:19.629Z,13.00
2018-11-10T11:11:46.800Z,13.10
2018-11-10T11:14:13.963Z,13.20
2018-11-10T11:16:41.144Z,13.30
2018-11-10T11:19:08.356Z,13.40
2018-11-10T11:21:35.531Z,13.40
2018-11-10T11:24:02.687Z,13.30
2018-11-10T11:26:29.859Z,13.20
2018-11-10T11:28:57.054Z,13.20
2018-11-10T11:31:24.243Z,13.30
2018-11-10T11:33:51.419Z,13.40
2018-11-10T11:36:18.515Z,13.40
2018-11-10T11:38:45.639Z,13.40
2018-11-10T11:41:12.918Z,13.40
2018-11-10T11:43:39.944Z,13.40
2018-11-10T11:46:07.090Z,13.30
2018-11-10T11:48:34.740Z,13.00
2018-11-10T11:51:01.881Z,12.80
2018-11-10T11:53:29.028Z,13.00
2018-11-10T11:55:56.153Z,13.20
2018-11-10T11:58:23.364Z,13.20
2018-11-10T12:00:50.524Z,13.40
2018-11-10T12:03:17.731Z,13.30
2018-11-10T12:05:44.879Z,13.40
2018-11-10T12:08:12.052Z,13.20
2018-11-10T12:10:39.237Z,13.40
2018-11-10T12:13:06.391Z,13.10
2018-11-10T12:15:33.538Z,13.10
2018-11-10T12:18:00.663Z,13.10
2018-11-10T12:20:27.800Z,13.10
2018-11-10T12:22:54.931Z,13.20
2018-11-10T12:25:22.080Z,13.20
2018-11-10T12:27:49.236Z,13.10
2018-11-10T12:30:16.363Z,13.00
2018-11-10T12:32:43.548Z,13.20
2018-11-10T12:35:11.943Z,13.10
2018-11-10T12:37:39.095Z,13.00
2018-11-10T12:40:07.788Z,13.20
2018-11-10T12:42:35.239Z,13.30
2018-11-10T12:45:02.489Z,13.10
2018-11-10T12:47:29.739Z,13.10
2018-11-10T12:49:56.843Z,13.30
2018-11-10T12:52:23.980Z,12.90
2018-11-10T12:54:51.233Z,13.00
2018-11-10T12:57:18.319Z,13.10
2018-11-10T12:59:45.458Z,13.00
2018-11-10T13:02:12.633Z,13.00
2018-11-10T13:04:39.778Z,13.00
2018-11-10T13:07:06.995Z,13.10
2018-11-10T13:09:34.076Z,12.90
2018-11-10T13:12:01.283Z,12.60
2018-11-10T13:14:28.423Z,12.60
2018-11-10T13:16:55.558Z,12.50
2018-11-10T13:19:22.705Z,12.50
2018-11-10T13:21:49.878Z,12.50
2018-11-10T13:24:17.152Z,12.70
2018-11-10T13:26:44.260Z,12.80
2018-11-10T13:29:11.408Z,12.80
2018-11-10T13:31:38.627Z,12.80
2018-11-10T13:34:05.702Z,12.80
2018-11-10T13:36:32.835Z,12.80
2018-11-10T13:39:00.000Z,12.70
2018-11-10T13:41:27.135Z,12.70
2018-11-10T13:43:54.427Z,12.80
2018-11-10T13:46:21.456Z,12.80
2018-11-10T13:48:48.943Z,12.70
2018-11-10T13:51:16.443Z,12.70
2018-11-10T13:53:43.281Z,12.70
2018-11-10T13:56:10.439Z,12.70
2018-11-10T13:58:37.589Z,12.70
2018-11-10T14:01:05.090Z,12.70
2018-11-10T14:03:32.967Z,12.70
2018-11-10T14:06:00.155Z,12.70
2018-11-10T14:08:27.295Z,12.70
2018-11-10T14:10:54.471Z,12.70
2018-11-10T14:13:21.610Z,12.70
2018-11-10T14:15:48.776Z,12.70
2018-11-10T14:18:15.922Z,12.60
2018-11-10T14:20:43.227Z,12.60
2018-11-10T14:23:10.251Z,12.50
2018-11-10T14:25:37.411Z,12.40
2018-11-10T14:28:04.868Z,12.50
2018-11-10T14:30:32.028Z,12.50
2018-11-10T14:32:59.170Z,12.50
2018-11-10T14:35:26.331Z,12.50
2018-11-10T14:37:53.473Z,12.40
2018-11-10T14:40:20.652Z,12.30
2018-11-10T14:42:47.804Z,12.30
2018-11-10T14:45:16.377Z,12.30
2018-11-10T14:47:44.028Z,12.30
2018-11-10T14:50:12.184Z,12.20
2018-11-10T14:52:39.649Z,12.20
2018-11-10T14:55:07.315Z,12.20
2018-11-10T14:57:34.592Z,12.30
2018-11-10T15:00:01.944Z,12.30
2018-11-10T15:02:29.101Z,12.30
2018-11-10T15:04:56.301Z,12.40
2018-11-10T15:07:23.431Z,12.30
2018-11-10T15:09:50.617Z,12.20
2018-11-10T15:12:17.894Z,12.10
2018-11-10T15:14:44.943Z,12.10
2018-11-10T15:17:12.093Z,12.10
2018-11-10T15:19:39.246Z,12.20
2018-11-10T15:22:06.596Z,12.00
2018-11-10T15:24:33.750Z,11.90
2018-11-10T15:27:00.935Z,11.70
2018-11-10T15:29:28.075Z,11.60
2018-11-10T15:31:55.230Z,11.60
2018-11-10T15:34:29.134Z,11.60
2018-11-10T15:36:56.401Z,11.60
2018-11-10T15:39:23.563Z,11.80
2018-11-10T15:41:50.703Z,11.80
2018-11-10T15:44:17.834Z,11.90
2018-11-10T15:46:44.955Z,12.00
2018-11-10T15:49:12.114Z,11.90
2018-11-10T15:51:39.483Z,12.00
2018-11-10T15:54:06.660Z,12.10
2018-11-10T15:56:33.844Z,12.20
2018-11-10T15:59:01.081Z,12.00
2018-11-10T16:01:28.236Z,12.00
2018-11-10T16:03:55.396Z,11.90
2018-11-10T16:06:22.555Z,11.90
2018-11-10T16:08:49.716Z,11.80
2018-11-10T16:11:16.908Z,11.70
2018-11-10T16:13:44.092Z,11.60
2018-11-10T16:16:11.232Z,11.60
2018-11-10T16:18:45.061Z,11.60
2018-11-10T16:21:12.672Z,11.60
2018-11-10T16:23:39.794Z,11.60
2018-11-10T16:26:06.949Z,11.50
2018-11-10T16:28:34.164Z,11.60
2018-11-10T16:31:01.275Z,11.60
2018-11-10T16:33:28.425Z,11.50
2018-11-10T16:35:55.584Z,11.50
2018-11-10T16:38:22.788Z,11.40
2018-11-10T16:40:49.956Z,11.50
2018-11-10T16:43:17.119Z,11.50
2018-11-10T16:45:44.283Z,11.50
2018-11-10T16:48:11.424Z,11.50
2018-11-10T16:50:38.563Z,11.50
2018-11-10T16:53:05.756Z,11.50
2018-11-10T16:55:32.927Z,11.50
2018-11-10T16:58:00.074Z,11.50
2018-11-10T17:00:27.216Z,11.50
2018-11-10T17:02:54.370Z,11.60
2018-11-10T17:05:21.542Z,11.70
2018-11-10T17:07:48.670Z,11.60
2018-11-10T17:10:16.983Z,11.60
2018-11-10T17:12:44.148Z,11.70
2018-11-10T17:15:11.499Z,11.70
2018-11-10T17:17:38.790Z,11.80
2018-11-10T17:20:08.286Z,11.80
2018-11-10T17:22:35.829Z,11.80
2018-11-10T17:25:02.930Z,11.90
2018-11-10T17:27:30.124Z,11.90
2018-11-10T17:29:57.266Z,11.90
2018-11-10T17:32:24.407Z,12.00
2018-11-10T17:34:51.540Z,12.00
2018-11-10T17:37:18.646Z,12.00
2018-11-10T17:39:45.903Z,12.00
2018-11-10T17:42:12.958Z,12.00
2018-11-10T17:44:40.059Z,12.00
2018-11-10T17:47:07.179Z,11.90
2018-11-10T17:49:34.505Z,11.90
2018-11-10T17:52:02.257Z,11.90
2018-11-10T17:54:29.317Z,11.90
2018-11-10T17:56:56.439Z,11.80
2018-11-10T17:59:23.725Z,11.70
2018-11-10T18:01:50.993Z,11.50
2018-11-10T18:04:18.031Z,11.60
2018-11-10T18:06:45.179Z,11.70
2018-11-10T18:09:12.337Z,11.70
2018-11-10T18:11:39.978Z,11.70
2018-11-10T18:14:07.443Z,11.90
2018-11-10T18:16:34.595Z,12.00
2018-11-10T18:19:01.919Z,12.00
2018-11-10T18:21:29.304Z,11.90
2018-11-10T18:23:56.425Z,11.80
2018-11-10T18:26:23.546Z,11.90
2018-11-10T18:28:50.672Z,11.90
2018-11-10T18:31:17.803Z,11.90
2018-11-10T18:33:44.944Z,11.90
2018-11-10T18:36:12.072Z,11.90
2018-11-10T18:38:39.204Z,11.90
2018-11-10T18:41:06.340Z,11.90
2018-11-10T18:43:33.460Z,11.90
2018-11-10T18:46:00.611Z,11.80
2018-11-10T18:48:27.742Z,11.80
2018-11-10T18:50:54.875Z,11.80
2018-11-10T18:53:22.221Z,11.80
2018-11-10T18:55:49.351Z,11.70
2018-11-10T18:58:16.531Z,11.70
2018-11-10T19:00:43.638Z,11.70
2018-11-10T19:03:10.760Z,11.80
2018-11-10T19:05:37.878Z,11.90
2018-11-10T19:08:05.080Z,11.80
2018-11-10T19:10:32.235Z,11.90
2018-11-10T19:12:59.400Z,11.90
2018-11-10T19:15:26.563Z,12.10
2018-11-10T19:17:53.695Z,12.10
2018-11-10T19:20:20.855Z,12.20
2018-11-10T19:22:48.041Z,12.20
2018-11-10T19:25:15.134Z,12.30
2018-11-10T19:27:42.266Z,12.40
2018-11-10T19:30:12.336Z,12.50
2018-11-10T19:32:39.488Z,12.50
2018-11-10T19:35:06.643Z,12.50
2018-11-10T19:37:33.792Z,12.50
2018-11-10T19:40:01.035Z,12.50
2018-11-10T19:42:28.180Z,12.40
2018-11-10T19:44:55.316Z,12.50
2018-11-10T19:47:22.447Z,12.50
2018-11-10T19:49:49.570Z,12.50
2018-11-10T19:52:17.269Z,12.50
2018-11-10T19:54:44.511Z,12.50
2018-11-10T19:57:11.635Z,12.50
2018-11-10T19:59:38.766Z,12.50
2018-11-10T20:02:06.060Z,12.50
2018-11-10T20:04:33.203Z,12.50
2018-11-10T20:07:00.348Z,12.60
2018-11-10T20:09:27.484Z,12.50
2018-11-10T20:11:54.610Z,12.50
2018-11-10T20:14:21.723Z,12.30
2018-11-10T20:16:48.853Z,12.40
2018-11-10T20:19:15.971Z,12.50
2018-11-10T20:21:43.086Z,12.70
2018-11-10T20:24:10.280Z,12.70
2018-11-10T20:26:37.448Z,12.80
2018-11-10T20:29:05.107Z,12.70
2018-11-10T20:31:32.248Z,12.70
2018-11-10T20:33:59.379Z,12.70
2018-11-10T20:36:26.486Z,12.80
2018-11-10T20:38:53.802Z,12.80
2018-11-10T20:41:20.868Z,12.80
2018-11-10T20:43:47.986Z,12.80
2018-11-10T20:46:15.194Z,12.80
2018-11-10T20:48:42.332Z,12.80
2018-11-10T20:51:09.500Z,12.80
2018-11-10T20:53:36.616Z,12.80
2018-11-10T20:56:04.243Z,12.70
2018-11-10T20:58:31.379Z,12.60
2018-11-10T21:00:58.533Z,12.80
2018-11-10T21:03:25.653Z,12.80
2018-11-10T21:05:52.945Z,12.80
2018-11-10T21:08:19.930Z,12.80
2018-11-10T21:10:47.075Z,12.80
2018-11-10T21:13:14.208Z,12.70
2018-11-10T21:15:41.357Z,12.80
2018-11-10T21:18:08.554Z,12.80
2018-11-10T21:20:35.718Z,12.80
2018-11-10T21:23:02.854Z,12.80
2018-11-10T21:25:29.975Z,12.80
2018-11-10T21:27:57.100Z,12.80
2018-11-10T21:30:24.244Z,12.80
2018-11-10T21:32:51.376Z,12.80
2018-11-10T21:35:18.589Z,12.80
2018-11-10T21:37:45.679Z,12.60
2018-11-10T21:40:17.029Z,12.70
2018-11-10T21:42:44.670Z,12.60
2018-11-10T21:45:12.645Z,12.70
2018-11-10T21:47:39.824Z,12.60
2018-11-10T21:50:09.404Z,12.60
2018-11-10T21:52:36.680Z,12.60
2018-11-10T21:55:04.112Z,12.50
2018-11-10T21:57:31.235Z,12.60
2018-11-10T21:59:58.404Z,12.60
2018-11-10T22:02:25.543Z,12.70
2018-11-10T22:04:52.668Z,12.70
2018-11-10T22:07:19.784Z,12.70
2018-11-10T22:09:46.976Z,12.70
2018-11-10T22:12:14.069Z,12.60
2018-11-10T22:14:41.195Z,12.60
2018-11-10T22:17:08.371Z,12.50
2018-11-10T22:19:35.506Z,12.50
2018-11-10T22:22:02.724Z,12.50
2018-11-10T22:24:29.846Z,12.40
2018-11-10T22:26:56.980Z,12.50
2018-11-10T22:29:24.113Z,12.50
2018-11-10T22:31:51.242Z,12.40
2018-11-10T22:34:18.399Z,12.50
2018-11-10T22:36:45.515Z,12.60
2018-11-10T22:39:12.651Z,12.60
2018-11-10T22:41:39.811Z,12.60
2018-11-10T22:44:06.950Z,12.50
2018-11-10T22:46:34.085Z,12.50
2018-11-10T22:49:01.213Z,12.60
2018-11-10T22:51:28.340Z,12.70
2018-11-10T22:53:55.482Z,12.60
2018-11-10T22:56:22.607Z,12.60
2018-11-10T22:58:49.747Z,12.60
2018-11-10T23:01:16.883Z,12.50
2018-11-10T23:03:44.037Z,12.60
2018-11-10T23:06:11.148Z,12.60
2018-11-10T23:08:38.280Z,12.50
2018-11-10T23:11:05.463Z,12.40
2018-11-10T23:13:32.738Z,12.30
2018-11-10T23:15:59.876Z,12.30
2018-11-10T23:18:27.172Z,12.30
2018-11-10T23:20:54.532Z,12.30
2018-11-10T23:23:21.782Z,12.40
2018-11-10T23:25:48.949Z,12.20
2018-11-10T23:28:16.092Z,12.20
2018-11-10T23:30:43.244Z,12.20
2018-11-10T23:33:10.396Z,12.20
2018-11-10T23:35:37.626Z,12.20
2018-11-10T23:38:04.813Z,12.20
2018-11-10T23:40:31.962Z,12.40
2018-11-10T23:42:59.171Z,12.40
2018-11-10T23:45:26.376Z,12.30
2018-11-10T23:47:53.527Z,12.40
2018-11-10T23:50:20.769Z,12.50
2018-11-10T23:52:47.969Z,12.50
2018-11-10T23:55:15.775Z,12.50
2018-11-10T23:57:42.957Z,12.40
